Time;durP1;ratioP1;P1;durP2;ratioP2;P2;SDS_P1;SDS_P2;PMS_P1;PMS_P2;Temp;Humidity;BMP_temperature;BMP_pressure;BME280_temperature;BME280_humidity;BME280_pressure;Samples;Min_cycle;Max_cycle;Signal;HPM_P1;HPM_P2
2021/06/08 00:00:12;;;;;;;6.22;4.43;;;;;;;;;;5089531;28;20020;-69
2021/06/08 00:02:38;;;;;;;7.00;4.38;;;;;;;;;;5089805;28;20028;-69
2021/06/08 00:05:05;;;;;;;12.38;4.70;;;;;;;;;;5088187;28;20020;-69
2021/06/08 00:07:31;;;;;;;8.55;4.65;;;;;;;;;;5089745;28;20107;-70
2021/06/08 00:09:57;;;;;;;12.32;5.38;;;;;;;;;;5089727;28;20031;-70
2021/06/08 00:12:23;;;;;;;9.57;5.28;;;;;;;;;;5089332;28;20032;-70
2021/06/08 00:17:03;;;;;;;7.28;5.07;;;;;;;;;;5122050;27;20397;-69
2021/06/08 00:19:29;;;;;;;10.63;5.72;;;;;;;;;;5089754;28;20032;-69
2021/06/08 00:21:55;;;;;;;11.65;5.00;;;;;;;;;;5090087;28;20034;-69
2021/06/08 00:24:21;;;;;;;6.07;4.15;;;;;;;;;;5090024;28;20073;-69
2021/06/08 00:26:48;;;;;;;9.68;4.18;;;;;;;;;;5089613;28;20414;-69
2021/06/08 00:29:14;;;;;;;7.05;3.75;;;;;;;;;;5089949;28;20044;-70
2021/06/08 00:33:40;;;;;;;8.55;3.70;;;;;;;;;;5086955;28;20117;-70
2021/06/08 00:36:06;;;;;;;6.82;4.40;;;;;;;;;;5110606;28;20035;-69
2021/06/08 00:38:32;;;;;;;9.20;3.90;;;;;;;;;;5110562;28;20015;-70
2021/06/08 00:45:32;;;;;;;6.68;4.22;;;;;;;;;;5121788;27;20408;-69
2021/06/08 00:47:58;;;;;;;8.75;3.92;;;;;;;;;;5088413;28;20413;-70
2021/06/08 00:51:31;;;;;;;6.80;3.42;;;;;;;;;;5121709;27;20401;-69
2021/06/08 00:53:59;;;;;;;9.52;4.13;;;;;;;;;;5090193;28;20028;-70
2021/06/08 00:56:25;;;;;;;7.88;4.55;;;;;;;;;;5089910;28;20034;-70
2021/06/08 00:58:51;;;;;;;8.18;4.97;;;;;;;;;;5090124;28;20472;-70
2021/06/08 01:01:18;;;;;;;10.07;4.43;;;;;;;;;;5089606;28;20036;-70
2021/06/08 01:03:44;;;;;;;7.28;4.32;;;;;;;;;;5089980;28;20048;-70
2021/06/08 01:06:10;;;;;;;9.82;5.30;;;;;;;;;;5089915;28;20059;-70
2021/06/08 01:08:36;;;;;;;6.70;3.70;;;;;;;;;;5089510;28;20350;-70
2021/06/08 01:13:02;;;;;;;7.03;4.55;;;;;;;;;;5121752;27;20397;-70
2021/06/08 01:17:46;;;;;;;8.48;4.10;;;;;;;;;;5119763;27;20834;-69
2021/06/08 01:20:13;;;;;;;5.70;3.72;;;;;;;;;;5088700;28;20035;-69
2021/06/08 01:26:06;;;;;;;7.50;4.10;;;;;;;;;;5121942;27;20394;-68
2021/06/08 01:28:33;;;;;;;7.35;4.38;;;;;;;;;;5090102;28;20028;-69
2021/06/08 01:32:08;;;;;;;8.20;4.13;;;;;;;;;;5122117;27;20393;-69
2021/06/08 01:34:35;;;;;;;7.85;4.43;;;;;;;;;;5090326;28;20034;-70
2021/06/08 01:37:02;;;;;;;10.50;4.28;;;;;;;;;;5089720;28;20099;-69
2021/06/08 01:39:28;;;;;;;7.03;4.18;;;;;;;;;;5090075;28;20027;-69
2021/06/08 01:45:50;;;;;;;7.43;4.55;;;;;;;;;;5121422;27;20397;-69
2021/06/08 01:48:17;;;;;;;6.80;3.67;;;;;;;;;;5090363;28;20036;-69
2021/06/08 01:53:13;;;;;;;9.63;4.40;;;;;;;;;;5109025;27;20336;-69
2021/06/08 01:55:43;;;;;;;6.30;3.50;;;;;;;;;;5110679;28;20145;-69
2021/06/08 01:58:17;;;;;;;8.55;4.18;;;;;;;;;;5091812;28;20030;-69
2021/06/08 02:00:59;;;;;;;6.57;3.88;;;;;;;;;;5110425;28;20117;-69
2021/06/08 02:05:07;;;;;;;5.30;3.15;;;;;;;;;;5121473;27;20394;-69
2021/06/08 02:07:44;;;;;;;7.63;4.28;;;;;;;;;;5088886;28;20081;-69
2021/06/08 02:12:33;;;;;;;6.72;4.07;;;;;;;;;;5121529;27;20394;-69
2021/06/08 02:16:35;;;;;;;8.13;3.78;;;;;;;;;;5122043;27;20398;-69
2021/06/08 02:25:32;;;;;;;7.43;4.70;;;;;;;;;;5121844;27;20393;-70
2021/06/08 02:28:00;;;;;;;7.35;3.70;;;;;;;;;;5088527;28;20557;-69
2021/06/08 02:30:27;;;;;;;6.20;3.75;;;;;;;;;;5090112;28;20016;-69
2021/06/08 02:32:54;;;;;;;7.85;4.00;;;;;;;;;;5089718;28;20103;-70
2021/06/08 02:35:22;;;;;;;6.15;3.95;;;;;;;;;;5088894;28;20392;-70
2021/06/08 02:39:07;;;;;;;6.78;4.30;;;;;;;;;;5121814;27;20394;-70
2021/06/08 02:41:33;;;;;;;7.55;4.38;;;;;;;;;;5089771;28;20044;-69
2021/06/08 02:47:58;;;;;;;73.35;69.03;;;;;;;;;;5121385;27;20394;-69
2021/06/08 02:50:24;;;;;;;9.93;5.22;;;;;;;;;;5090069;28;20036;-69
2021/06/08 02:54:17;;;;;;;7.95;4.13;;;;;;;;;;5121532;27;20881;-69
2021/06/08 02:58:52;;;;;;;6.43;3.70;;;;;;;;;;5076696;28;20329;-69
2021/06/08 03:01:19;;;;;;;9.45;4.70;;;;;;;;;;5110071;28;20030;-69
2021/06/08 03:05:57;;;;;;;10.05;4.28;;;;;;;;;;5121682;27;20397;-70
2021/06/08 03:08:42;;;;;;;7.63;4.57;;;;;;;;;;5089747;28;20032;-69
2021/06/08 03:11:11;;;;;;;6.47;4.20;;;;;;;;;;5090091;28;20020;-69
2021/06/08 03:13:37;;;;;;;6.15;3.60;;;;;;;;;;5090029;28;20050;-69
2021/06/08 03:16:04;;;;;;;6.78;3.67;;;;;;;;;;5089835;28;20023;-69
2021/06/08 03:20:27;;;;;;;7.68;3.90;;;;;;;;;;5121873;27;20882;-69
2021/06/08 03:25:42;;;;;;;8.57;4.22;;;;;;;;;;5121969;27;20402;-69
2021/06/08 03:28:09;;;;;;;7.43;3.65;;;;;;;;;;5090126;28;20048;-69
2021/06/08 03:30:36;;;;;;;6.68;4.15;;;;;;;;;;5089704;28;20028;-69
2021/06/08 03:34:32;;;;;;;6.97;3.72;;;;;;;;;;5121818;27;20390;-70
2021/06/08 03:36:59;;;;;;;7.38;3.97;;;;;;;;;;5089937;28;20035;-70
2021/06/08 03:42:52;;;;;;;8.35;4.22;;;;;;;;;;5121994;27;20397;-69
2021/06/08 03:45:19;;;;;;;7.43;4.45;;;;;;;;;;5089692;28;20055;-69
2021/06/08 03:50:36;;;;;;;7.30;4.38;;;;;;;;;;5121602;27;20404;-70
2021/06/08 03:53:03;;;;;;;471.20;438.38;;;;;;;;;;5090032;28;20056;-70
2021/06/08 03:57:39;;;;;;;487.13;449.77;;;;;;;;;;5121532;27;20415;-70
2021/06/08 04:00:06;;;;;;;8.20;4.60;;;;;;;;;;5090073;28;20032;-70
2021/06/08 04:03:20;;;;;;;5.50;3.60;;;;;;;;;;5122028;27;20397;-69
2021/06/08 04:05:46;;;;;;;14.68;5.80;;;;;;;;;;5089742;28;20023;-70
2021/06/08 04:09:35;;;;;;;12.55;6.63;;;;;;;;;;5121765;27;20397;-69
2021/06/08 04:13:31;;;;;;;9.75;5.60;;;;;;;;;;5121543;27;20389;-69
2021/06/08 04:15:57;;;;;;;204.52;189.50;;;;;;;;;;5089012;28;20035;-69
2021/06/08 04:18:24;;;;;;;602.15;542.95;;;;;;;;;;5090079;28;20024;-69
2021/06/08 04:20:53;;;;;;;662.78;590.08;;;;;;;;;;5089989;28;20027;-69
2021/06/08 04:23:24;;;;;;;8.20;4.18;;;;;;;;;;5089988;28;20052;-69
2021/06/08 04:25:50;;;;;;;9.32;4.75;;;;;;;;;;5089670;28;20103;-70
2021/06/08 04:28:18;;;;;;;8.85;5.53;;;;;;;;;;5088595;28;20021;-70
2021/06/08 04:30:46;;;;;;;6.78;4.50;;;;;;;;;;5089879;28;20073;-70
2021/06/08 04:33:12;;;;;;;8.57;4.68;;;;;;;;;;5089592;28;20040;-70
2021/06/08 04:35:39;;;;;;;7.13;4.57;;;;;;;;;;5089871;28;20024;-70
2021/06/08 04:38:05;;;;;;;7.57;5.10;;;;;;;;;;5088463;28;20040;-70
2021/06/08 04:40:32;;;;;;;40.88;38.33;;;;;;;;;;5089129;28;20024;-70
2021/06/08 04:42:58;;;;;;;9.70;4.70;;;;;;;;;;5089576;28;20016;-70
2021/06/08 04:45:24;;;;;;;9.13;4.38;;;;;;;;;;5089556;28;20492;-69
2021/06/08 04:50:56;;;;;;;10.18;6.25;;;;;;;;;;5121745;27;20398;-70
2021/06/08 04:53:23;;;;;;;11.05;5.43;;;;;;;;;;5089980;28;20055;-69
2021/06/08 04:57:54;;;;;;;10.52;5.57;;;;;;;;;;5121958;27;20493;-69
2021/06/08 05:07:29;;;;;;;9.82;4.63;;;;;;;;;;5121347;27;20390;-71
2021/06/08 05:11:29;;;;;;;8.30;4.38;;;;;;;;;;5122093;27;20719;-69
2021/06/08 05:13:56;;;;;;;9.13;4.30;;;;;;;;;;5090067;28;20112;-67
2021/06/08 05:16:22;;;;;;;6.88;3.92;;;;;;;;;;5087205;28;20035;-66
2021/06/08 05:18:52;;;;;;;8.45;5.25;;;;;;;;;;5088373;28;20020;-65
2021/06/08 05:21:19;;;;;;;8.48;4.28;;;;;;;;;;5085912;28;20056;-67
2021/06/08 05:23:45;;;;;;;7.63;4.43;;;;;;;;;;5088578;28;20031;-66
2021/06/08 05:26:12;;;;;;;7.28;4.20;;;;;;;;;;5069474;28;20016;-66
2021/06/08 05:28:42;;;;;;;8.07;4.45;;;;;;;;;;5057222;28;20125;-66
2021/06/08 05:31:09;;;;;;;272.88;245.68;;;;;;;;;;5060086;28;20461;-67
2021/06/08 05:34:19;;;;;;;7.97;4.32;;;;;;;;;;5087004;27;20750;-66
2021/06/08 05:36:46;;;;;;;7.07;4.00;;;;;;;;;;5057518;28;20145;-67
2021/06/08 05:40:00;;;;;;;12.77;5.60;;;;;;;;;;5089738;27;20681;-66
2021/06/08 05:42:26;;;;;;;10.18;5.38;;;;;;;;;;5055764;28;20039;-67
2021/06/08 05:44:53;;;;;;;10.80;5.10;;;;;;;;;;5058965;28;20035;-66
2021/06/08 05:47:20;;;;;;;7.78;4.55;;;;;;;;;;5057431;28;20073;-67
2021/06/08 05:51:02;;;;;;;10.52;4.35;;;;;;;;;;4586177;27;15124282;-67
2021/06/08 05:53:28;;;;;;;14.27;9.27;;;;;;;;;;5110192;27;20034;-67
2021/06/08 05:57:34;;;;;;;10.15;5.53;;;;;;;;;;5088735;27;20845;-67
2021/06/08 06:02:16;;;;;;;12.95;7.38;;;;;;;;;;5097070;27;20386;-68
2021/06/08 06:07:09;;;;;;;10.07;5.82;;;;;;;;;;5120470;27;20398;-68
2021/06/08 06:09:36;;;;;;;9.18;5.90;;;;;;;;;;5087100;28;20471;-68
2021/06/08 06:12:02;;;;;;;9.80;5.40;;;;;;;;;;5089315;28;20031;-69
2021/06/08 06:14:29;;;;;;;9.60;4.57;;;;;;;;;;5089498;28;20020;-68
2021/06/08 06:16:55;;;;;;;14.80;5.55;;;;;;;;;;5071450;28;20609;-68
2021/06/08 06:19:22;;;;;;;7.82;4.93;;;;;;;;;;5063334;28;20036;-67
2021/06/08 06:21:49;;;;;;;9.77;5.03;;;;;;;;;;5063812;28;20020;-68
2021/06/08 06:24:15;;;;;;;7.97;4.78;;;;;;;;;;5055994;28;20028;-67
2021/06/08 06:26:45;;;;;;;6.68;3.95;;;;;;;;;;5060136;28;20115;-67
2021/06/08 06:29:15;;;;;;;7.10;4.30;;;;;;;;;;5060854;28;20035;-68
2021/06/08 06:31:48;;;;;;;8.38;4.65;;;;;;;;;;5060138;28;20440;-67
2021/06/08 06:34:15;;;;;;;10.25;4.60;;;;;;;;;;5061525;28;20024;-68
2021/06/08 06:36:43;;;;;;;10.10;5.50;;;;;;;;;;5061347;28;20095;-67
2021/06/08 06:39:11;;;;;;;9.60;5.30;;;;;;;;;;5061263;28;20032;-68
2021/06/08 06:41:41;;;;;;;7.57;4.35;;;;;;;;;;5058480;28;20020;-67
2021/06/08 06:44:07;;;;;;;7.18;4.20;;;;;;;;;;5061879;28;20074;-69
2021/06/08 06:46:34;;;;;;;8.52;4.75;;;;;;;;;;5062541;28;20040;-67
2021/06/08 06:49:00;;;;;;;8.55;4.70;;;;;;;;;;5061645;28;20155;-67
2021/06/08 06:51:27;;;;;;;10.60;5.22;;;;;;;;;;5062219;28;20048;-71
2021/06/08 06:55:36;;;;;;;9.13;5.03;;;;;;;;;;5094031;27;20476;-68
2021/06/08 06:58:02;;;;;;;7.85;4.70;;;;;;;;;;5062650;28;20063;-70
2021/06/08 07:00:29;;;;;;;10.15;5.25;;;;;;;;;;5058992;28;20101;-70
2021/06/08 07:02:56;;;;;;;7.97;4.45;;;;;;;;;;5045172;28;20024;-68
2021/06/08 07:05:24;;;;;;;9.88;5.28;;;;;;;;;;5065796;28;20043;-69
2021/06/08 07:07:52;;;;;;;9.07;5.53;;;;;;;;;;5059807;28;20019;-70
2021/06/08 07:10:20;;;;;;;7.75;4.43;;;;;;;;;;5061134;28;20025;-75
2021/06/08 07:13:27;;;;;;;8.73;4.10;;;;;;;;;;5120964;27;20395;-76
2021/06/08 07:15:53;;;;;;;9.80;4.88;;;;;;;;;;5119226;28;20154;-76
2021/06/08 07:21:06;;;;;;;7.35;4.22;;;;;;;;;;5120119;27;20392;-75
2021/06/08 07:23:32;;;;;;;8.00;5.03;;;;;;;;;;5089376;28;20476;-75
2021/06/08 07:25:58;;;;;;;13.23;4.88;;;;;;;;;;5089489;28;20020;-75
2021/06/08 07:28:25;;;;;;;10.88;4.80;;;;;;;;;;5091363;28;20434;-75
2021/06/08 07:30:51;;;;;;;6.90;4.68;;;;;;;;;;5091943;28;20027;-75
2021/06/08 07:33:29;;;;;;;7.38;4.30;;;;;;;;;;5087350;28;20078;-79
2021/06/08 07:36:01;;;;;;;6.38;4.15;;;;;;;;;;5079032;28;20020;-77
2021/06/08 07:38:47;;;;;;;7.63;4.88;;;;;;;;;;5087575;28;20074;-77
2021/06/08 07:41:15;;;;;;;11.73;5.60;;;;;;;;;;5086622;28;20032;-75
2021/06/08 07:43:44;;;;;;;8.90;4.22;;;;;;;;;;5087520;28;20036;-76
2021/06/08 07:46:16;;;;;;;8.93;4.97;;;;;;;;;;5086500;28;20476;-74
2021/06/08 07:48:44;;;;;;;8.40;5.18;;;;;;;;;;5088483;28;20024;-75
2021/06/08 07:51:12;;;;;;;8.15;4.45;;;;;;;;;;5086437;28;20123;-77
2021/06/08 07:53:38;;;;;;;10.82;4.75;;;;;;;;;;5088628;28;20024;-79
2021/06/08 07:56:05;;;;;;;7.63;4.72;;;;;;;;;;5088636;28;20032;-78
2021/06/08 07:58:31;;;;;;;7.57;4.97;;;;;;;;;;5087286;28;20048;-78
2021/06/08 08:00:59;;;;;;;8.98;5.20;;;;;;;;;;5087502;28;20032;-80
2021/06/08 08:03:30;;;;;;;11.65;5.47;;;;;;;;;;5087491;28;20023;-75
2021/06/08 08:06:04;;;;;;;6.93;4.43;;;;;;;;;;5087774;28;20024;-73
2021/06/08 08:08:32;;;;;;;7.55;4.65;;;;;;;;;;5087572;28;20021;-73
2021/06/08 08:10:58;;;;;;;6.72;4.57;;;;;;;;;;5086737;28;20036;-74
2021/06/08 08:13:27;;;;;;;8.32;5.00;;;;;;;;;;5082592;28;20452;-73
2021/06/08 08:15:54;;;;;;;7.80;4.50;;;;;;;;;;5086527;28;20069;-74
2021/06/08 08:18:21;;;;;;;7.10;4.53;;;;;;;;;;5086235;28;20043;-73
2021/06/08 08:20:49;;;;;;;9.50;4.90;;;;;;;;;;5087940;28;20484;-73
2021/06/08 08:23:16;;;;;;;10.55;4.90;;;;;;;;;;5088261;28;20476;-73
2021/06/08 08:25:43;;;;;;;9.77;5.10;;;;;;;;;;5086497;28;20511;-73
2021/06/08 08:28:10;;;;;;;9.65;5.28;;;;;;;;;;5088245;28;20028;-73
2021/06/08 08:30:37;;;;;;;6.70;4.45;;;;;;;;;;5083330;28;20102;-73
2021/06/08 08:33:03;;;;;;;9.07;4.80;;;;;;;;;;5073760;28;20036;-72
2021/06/08 08:35:31;;;;;;;10.45;5.47;;;;;;;;;;5072116;28;20533;-74
2021/06/08 08:37:57;;;;;;;10.05;5.78;;;;;;;;;;5074162;28;20028;-72
2021/06/08 08:40:23;;;;;;;9.00;5.93;;;;;;;;;;5071760;28;20511;-73
2021/06/08 08:42:50;;;;;;;16.00;6.25;;;;;;;;;;5072685;28;20384;-73
2021/06/08 08:45:17;;;;;;;10.77;5.10;;;;;;;;;;5070704;28;20021;-73
2021/06/08 08:47:44;;;;;;;9.90;5.55;;;;;;;;;;5073950;28;20016;-73
2021/06/08 08:50:12;;;;;;;10.93;6.32;;;;;;;;;;5074449;28;20029;-74
2021/06/08 08:52:40;;;;;;;10.80;5.82;;;;;;;;;;5072526;28;20017;-74
2021/06/08 08:55:06;;;;;;;8.35;6.07;;;;;;;;;;5072227;28;20423;-74
2021/06/08 08:58:14;;;;;;;10.65;5.53;;;;;;;;;;5086191;28;20417;-73
2021/06/08 09:00:42;;;;;;;9.27;6.10;;;;;;;;;;5088625;28;20035;-73
2021/06/08 09:03:09;;;;;;;13.02;6.88;;;;;;;;;;5088883;28;20112;-73
2021/06/08 09:05:37;;;;;;;10.02;6.03;;;;;;;;;;5088421;28;20025;-74
2021/06/08 09:08:04;;;;;;;11.63;6.60;;;;;;;;;;5062822;28;20024;-73
2021/06/08 09:10:32;;;;;;;11.07;6.65;;;;;;;;;;5089011;28;20067;-74
2021/06/08 09:12:58;;;;;;;11.70;5.78;;;;;;;;;;5089314;28;20020;-73
2021/06/08 09:16:26;;;;;;;10.60;6.25;;;;;;;;;;5125479;27;20857;-72
2021/06/08 09:18:55;;;;;;;11.07;5.35;;;;;;;;;;5108559;28;20027;-73
2021/06/08 09:21:23;;;;;;;8.20;5.63;;;;;;;;;;5109306;28;20020;-75
2021/06/08 09:23:49;;;;;;;9.32;5.80;;;;;;;;;;5109656;28;20024;-74
2021/06/08 09:26:16;;;;;;;13.35;5.85;;;;;;;;;;5108182;28;20106;-75
2021/06/08 09:28:43;;;;;;;16.40;7.40;;;;;;;;;;5108776;28;20031;-68
2021/06/08 09:31:11;;;;;;;12.38;6.68;;;;;;;;;;5108440;28;20091;-67
2021/06/08 09:33:39;;;;;;;11.13;6.93;;;;;;;;;;5106688;28;20032;-68
2021/06/08 09:36:08;;;;;;;11.95;6.55;;;;;;;;;;5106449;28;20063;-67
2021/06/08 09:38:36;;;;;;;7.78;5.18;;;;;;;;;;5107672;28;20386;-67
2021/06/08 09:41:16;;;;;;;8.18;5.53;;;;;;;;;;5108084;28;20107;-67
2021/06/08 09:43:49;;;;;;;9.98;5.78;;;;;;;;;;5107293;28;20095;-67
2021/06/08 09:46:15;;;;;;;11.02;5.88;;;;;;;;;;5109451;28;20020;-67
2021/06/08 09:48:51;;;;;;;11.70;6.63;;;;;;;;;;5108942;28;20028;-68
2021/06/08 09:51:17;;;;;;;9.13;5.82;;;;;;;;;;5106586;28;20028;-68
2021/06/08 09:53:44;;;;;;;8.05;5.47;;;;;;;;;;5109189;28;20028;-68
2021/06/08 09:57:41;;;;;;;10.65;5.95;;;;;;;;;;5125410;27;20378;-67
2021/06/08 10:00:08;;;;;;;7.03;4.82;;;;;;;;;;5108219;28;20494;-67
2021/06/08 10:04:21;;;;;;;7.80;5.07;;;;;;;;;;5124982;27;20916;-67
2021/06/08 10:06:47;;;;;;;7.38;4.82;;;;;;;;;;5110095;28;20122;-68
2021/06/08 10:09:15;;;;;;;7.13;4.47;;;;;;;;;;5108053;28;20019;-68
2021/06/08 10:11:42;;;;;;;9.50;5.32;;;;;;;;;;5109314;28;20020;-68
2021/06/08 10:14:13;;;;;;;6.78;4.35;;;;;;;;;;5110194;28;20103;-68
2021/06/08 10:16:40;;;;;;;8.73;4.40;;;;;;;;;;5108846;28;20100;-67
2021/06/08 10:19:07;;;;;;;7.72;4.85;;;;;;;;;;5109451;28;20052;-66
2021/06/08 10:21:48;;;;;;;8.77;4.68;;;;;;;;;;5108635;28;20383;-67
2021/06/08 10:24:18;;;;;;;7.03;4.85;;;;;;;;;;5109422;28;20023;-72
2021/06/08 10:26:50;;;;;;;6.65;4.20;;;;;;;;;;5108966;28;20012;-73
2021/06/08 10:30:03;;;;;;;7.78;3.88;;;;;;;;;;5124443;27;20384;-70
2021/06/08 10:32:30;;;;;;;7.00;3.90;;;;;;;;;;5104464;28;20031;-71
2021/06/08 10:34:57;;;;;;;8.20;4.38;;;;;;;;;;5108410;28;20375;-70
2021/06/08 10:37:23;;;;;;;8.40;4.57;;;;;;;;;;5108344;28;20051;-71
2021/06/08 10:39:50;;;;;;;7.30;4.45;;;;;;;;;;5109299;28;20031;-71
2021/06/08 10:42:16;;;;;;;5.63;3.78;;;;;;;;;;5109920;28;20487;-70
2021/06/08 10:44:43;;;;;;;6.28;3.42;;;;;;;;;;5106042;28;20476;-72
2021/06/08 10:47:42;;;;;;;5.28;3.38;;;;;;;;;;5108680;28;20476;-72
2021/06/08 10:50:29;;;;;;;5.50;3.97;;;;;;;;;;5109447;28;20031;-72
2021/06/08 10:52:58;;;;;;;5.32;3.25;;;;;;;;;;5109533;28;20154;-73
2021/06/08 10:55:25;;;;;;;6.47;3.67;;;;;;;;;;5107603;28;20531;-71
2021/06/08 10:57:52;;;;;;;4.55;2.92;;;;;;;;;;5108191;28;20052;-72
2021/06/08 11:00:24;;;;;;;13.48;4.10;;;;;;;;;;5109479;28;20099;-77
2021/06/08 11:02:56;;;;;;;9.82;3.90;;;;;;;;;;5107935;28;20110;-75
2021/06/08 11:05:42;;;;;;;7.23;3.30;;;;;;;;;;5108765;28;20421;-75
2021/06/08 11:08:08;;;;;;;21.75;3.92;;;;;;;;;;5107397;28;20024;-74
2021/06/08 11:10:34;;;;;;;4.35;2.63;;;;;;;;;;5109451;28;20024;-76
2021/06/08 11:13:10;;;;;;;10.40;3.13;;;;;;;;;;5109607;28;20095;-74
2021/06/08 11:15:43;;;;;;;5.30;3.20;;;;;;;;;;5109084;28;20035;-74
2021/06/08 11:18:18;;;;;;;6.20;2.95;;;;;;;;;;5109203;28;20093;-73
2021/06/08 11:20:47;;;;;;;7.80;3.58;;;;;;;;;;5108476;28;20037;-72
2021/06/08 11:23:31;;;;;;;16.15;5.53;;;;;;;;;;5109202;28;20039;-73
2021/06/08 11:25:57;;;;;;;8.85;4.30;;;;;;;;;;5108823;28;20028;-74
2021/06/08 11:29:50;;;;;;;6.13;4.15;;;;;;;;;;5125317;27;20381;-74
2021/06/08 11:32:31;;;;;;;6.43;4.43;;;;;;;;;;5110300;28;20032;-73
2021/06/08 11:35:17;;;;;;;8.93;4.38;;;;;;;;;;5108411;28;20020;-74
2021/06/08 11:38:33;;;;;;;7.10;4.57;;;;;;;;;;5126092;27;20895;-73
2021/06/08 11:41:01;;;;;;;11.63;6.07;;;;;;;;;;5108791;28;20123;-74
2021/06/08 11:43:30;;;;;;;9.40;4.90;;;;;;;;;;5110069;28;20114;-73
2021/06/08 11:46:05;;;;;;;7.78;5.03;;;;;;;;;;5108719;28;20039;-73
2021/06/08 11:48:36;;;;;;;8.25;4.50;;;;;;;;;;5109605;28;20357;-72
2021/06/08 11:52:17;;;;;;;10.65;4.68;;;;;;;;;;5088801;28;20374;-73
2021/06/08 11:54:46;;;;;;;7.88;4.20;;;;;;;;;;5071329;28;20028;-72
2021/06/08 11:57:14;;;;;;;7.93;3.78;;;;;;;;;;5071224;28;20387;-74
2021/06/08 11:59:46;;;;;;;6.55;3.50;;;;;;;;;;5089442;28;20024;-72
2021/06/08 12:02:31;;;;;;;7.00;4.20;;;;;;;;;;5086513;28;20499;-73
2021/06/08 12:05:13;;;;;;;8.05;5.18;;;;;;;;;;5089253;28;20024;-74
2021/06/08 12:07:42;;;;;;;7.60;3.83;;;;;;;;;;5087348;28;20023;-73
2021/06/08 12:10:08;;;;;;;7.25;4.00;;;;;;;;;;5087247;28;20032;-74
2021/06/08 12:12:42;;;;;;;5.97;3.53;;;;;;;;;;5069606;28;20028;-74
2021/06/08 12:16:01;;;;;;;5.35;3.40;;;;;;;;;;5123533;27;20385;-73
2021/06/08 12:19:45;;;;;;;6.15;3.35;;;;;;;;;;5123390;27;20381;-73
2021/06/08 12:22:37;;;;;;;6.28;3.10;;;;;;;;;;5108173;28;20028;-73
2021/06/08 12:25:07;;;;;;;11.32;3.88;;;;;;;;;;5106261;28;20032;-72
2021/06/08 12:27:34;;;;;;;5.75;3.15;;;;;;;;;;5109397;28;20034;-73
2021/06/08 12:30:01;;;;;;;9.52;3.65;;;;;;;;;;5109813;28;20027;-73
2021/06/08 12:32:27;;;;;;;7.05;3.67;;;;;;;;;;5109876;28;20059;-73
2021/06/08 12:34:54;;;;;;;9.50;3.72;;;;;;;;;;5109721;28;20024;-72
2021/06/08 12:37:24;;;;;;;7.20;3.97;;;;;;;;;;5109618;28;20023;-73
2021/06/08 12:39:51;;;;;;;7.45;4.07;;;;;;;;;;5109227;28;20024;-73
2021/06/08 12:42:48;;;;;;;7.60;4.10;;;;;;;;;;5125438;27;20373;-72
2021/06/08 12:45:20;;;;;;;5.53;3.40;;;;;;;;;;5109813;28;20028;-72
2021/06/08 12:47:47;;;;;;;6.32;3.67;;;;;;;;;;5108868;28;20024;-72
2021/06/08 12:51:53;;;;;;;8.85;3.55;;;;;;;;;;5126205;27;20807;-73
2021/06/08 12:54:38;;;;;;;6.53;3.72;;;;;;;;;;5110286;28;20483;-73
2021/06/08 12:57:05;;;;;;;9.57;4.93;;;;;;;;;;5110075;28;20034;-73
2021/06/08 12:59:33;;;;;;;7.95;3.38;;;;;;;;;;5108143;28;20470;-73
2021/06/08 13:02:11;;;;;;;4.93;3.42;;;;;;;;;;5126060;27;20378;-73
2021/06/08 13:04:41;;;;;;;5.75;3.25;;;;;;;;;;5108641;28;20024;-73
2021/06/08 13:07:08;;;;;;;5.72;3.45;;;;;;;;;;5108489;28;20102;-73
2021/06/08 13:09:57;;;;;;;11.98;4.00;;;;;;;;;;5126334;27;20377;-72
2021/06/08 13:12:23;;;;;;;8.73;4.55;;;;;;;;;;5109408;28;20034;-73
2021/06/08 13:15:01;;;;;;;8.15;4.10;;;;;;;;;;5108876;28;20031;-73
2021/06/08 13:17:28;;;;;;;6.03;4.13;;;;;;;;;;5110546;28;20023;-73
2021/06/08 13:20:30;;;;;;;9.32;4.50;;;;;;;;;;5126119;27;20400;-73
2021/06/08 13:22:57;;;;;;;5.65;3.55;;;;;;;;;;5110673;28;20042;-73
2021/06/08 13:27:19;;;;;;;8.10;4.28;;;;;;;;;;5126155;27;20472;-73
2021/06/08 13:29:45;;;;;;;7.47;4.10;;;;;;;;;;5110532;28;20107;-73
2021/06/08 13:32:28;;;;;;;5.90;4.00;;;;;;;;;;5110592;28;20037;-73
2021/06/08 13:35:13;;;;;;;6.40;3.88;;;;;;;;;;5109385;28;20027;-72
2021/06/08 13:37:42;;;;;;;5.93;3.38;;;;;;;;;;5109068;28;20043;-72
2021/06/08 13:40:15;;;;;;;8.93;4.40;;;;;;;;;;5110398;28;20020;-73
2021/06/08 13:42:42;;;;;;;4.07;2.83;;;;;;;;;;5110000;28;20031;-72
2021/06/08 13:45:13;;;;;;;6.05;3.88;;;;;;;;;;5108781;28;20024;-72
2021/06/08 13:47:40;;;;;;;8.30;3.65;;;;;;;;;;5108824;28;20050;-72
2021/06/08 13:50:27;;;;;;;9.10;3.60;;;;;;;;;;5109663;28;20028;-73
2021/06/08 13:53:01;;;;;;;5.47;3.40;;;;;;;;;;5108942;28;20077;-73
2021/06/08 13:55:32;;;;;;;5.30;3.30;;;;;;;;;;5109808;28;20054;-73
2021/06/08 14:02:40;;;;;;;6.10;3.60;;;;;;;;;;5130752;28;20031;-72
2021/06/08 14:05:06;;;;;;;5.72;3.95;;;;;;;;;;5131076;27;20382;-75
2021/06/08 14:10:34;;;;;;;5.38;3.83;;;;;;;;;;5126419;27;20388;-73
2021/06/08 14:13:02;;;;;;;7.55;4.05;;;;;;;;;;5110821;28;20024;-73
2021/06/08 14:15:28;;;;;;;13.30;4.07;;;;;;;;;;5110504;28;20028;-73
2021/06/08 14:17:54;;;;;;;9.38;4.40;;;;;;;;;;5108836;28;20026;-73
2021/06/08 14:20:21;;;;;;;6.93;4.18;;;;;;;;;;5109301;28;20106;-72
2021/06/08 14:22:47;;;;;;;5.70;3.67;;;;;;;;;;5110278;28;20480;-72
2021/06/08 14:25:14;;;;;;;7.68;3.42;;;;;;;;;;5109808;28;20028;-72
2021/06/08 14:27:41;;;;;;;6.05;3.53;;;;;;;;;;5110048;28;20020;-73
2021/06/08 14:30:08;;;;;;;5.43;3.30;;;;;;;;;;5109655;28;20043;-73
2021/06/08 14:32:34;;;;;;;5.65;3.08;;;;;;;;;;5108921;28;20460;-73
2021/06/08 14:35:01;;;;;;;5.57;4.22;;;;;;;;;;5110272;28;20028;-74
2021/06/08 14:37:27;;;;;;;10.40;3.40;;;;;;;;;;5109645;28;20020;-76
2021/06/08 14:39:53;;;;;;;4.53;3.10;;;;;;;;;;5110044;28;20031;-74
2021/06/08 14:42:59;;;;;;;5.47;3.42;;;;;;;;;;5126418;27;20381;-74
2021/06/08 14:45:25;;;;;;;5.03;3.20;;;;;;;;;;5108848;28;20039;-73
2021/06/08 14:47:52;;;;;;;5.93;3.30;;;;;;;;;;5109252;28;20024;-74
2021/06/08 14:50:18;;;;;;;13.93;3.42;;;;;;;;;;5110170;28;20046;-73
2021/06/08 14:52:44;;;;;;;4.60;2.75;;;;;;;;;;5108763;28;20106;-74
2021/06/08 14:55:11;;;;;;;5.75;3.60;;;;;;;;;;5110469;28;20030;-73
2021/06/08 14:57:37;;;;;;;5.68;3.58;;;;;;;;;;5109002;28;20035;-73
2021/06/08 15:00:04;;;;;;;5.85;3.28;;;;;;;;;;5109962;28;20539;-74
2021/06/08 15:02:30;;;;;;;5.43;2.80;;;;;;;;;;5110157;28;20429;-74
2021/06/08 15:04:56;;;;;;;5.50;3.13;;;;;;;;;;5110225;28;20023;-74
2021/06/08 15:07:22;;;;;;;4.40;3.00;;;;;;;;;;5109810;28;20019;-74
2021/06/08 15:09:49;;;;;;;5.20;2.33;;;;;;;;;;5108883;28;20024;-74
2021/06/08 15:12:16;;;;;;;3.67;2.45;;;;;;;;;;5109785;28;20028;-74
2021/06/08 15:14:43;;;;;;;12.40;2.95;;;;;;;;;;5108884;28;20089;-74
2021/06/08 15:17:11;;;;;;;4.53;2.35;;;;;;;;;;5108575;28;20031;-74
2021/06/08 15:19:37;;;;;;;4.22;2.20;;;;;;;;;;5109563;28;20065;-73
2021/06/08 15:22:06;;;;;;;3.42;2.22;;;;;;;;;;5108395;28;20491;-73
2021/06/08 15:24:32;;;;;;;5.18;2.30;;;;;;;;;;5109686;28;20042;-74
2021/06/08 15:26:58;;;;;;;5.00;2.13;;;;;;;;;;5109399;28;20024;-74
2021/06/08 15:29:24;;;;;;;3.25;2.10;;;;;;;;;;5109630;28;20070;-74
2021/06/08 15:31:51;;;;;;;4.72;2.03;;;;;;;;;;5109630;28;20026;-74
2021/06/08 15:34:17;;;;;;;3.75;2.20;;;;;;;;;;5109475;28;20441;-74
2021/06/08 15:36:43;;;;;;;3.30;2.22;;;;;;;;;;5109552;28;20073;-74
2021/06/08 15:39:10;;;;;;;3.80;2.42;;;;;;;;;;5108209;28;20035;-75
2021/06/08 15:41:37;;;;;;;7.05;2.10;;;;;;;;;;5108752;28;20070;-74
2021/06/08 15:44:03;;;;;;;5.32;2.65;;;;;;;;;;5107986;28;20026;-74
2021/06/08 15:46:35;;;;;;;6.32;2.63;;;;;;;;;;5109383;28;20031;-74
2021/06/08 15:49:01;;;;;;;9.15;2.72;;;;;;;;;;5109211;28;20017;-74
2021/06/08 15:51:27;;;;;;;8.02;2.60;;;;;;;;;;5109376;28;20051;-75
2021/06/08 15:53:53;;;;;;;4.45;2.60;;;;;;;;;;5098474;28;20095;-75
2021/06/08 15:56:23;;;;;;;5.30;2.92;;;;;;;;;;5095951;28;20029;-74
2021/06/08 15:58:50;;;;;;;4.63;2.83;;;;;;;;;;5097139;28;20020;-75
2021/06/08 16:01:16;;;;;;;4.35;2.60;;;;;;;;;;5096170;28;20069;-75
2021/06/08 16:03:43;;;;;;;6.30;3.30;;;;;;;;;;5093813;28;20028;-75
2021/06/08 16:06:09;;;;;;;3.92;2.50;;;;;;;;;;5095603;28;20016;-74
2021/06/08 16:08:35;;;;;;;6.07;3.47;;;;;;;;;;5095487;28;20028;-74
2021/06/08 16:11:01;;;;;;;5.55;3.42;;;;;;;;;;5095826;28;20084;-74
2021/06/08 16:13:28;;;;;;;6.38;2.50;;;;;;;;;;5094590;28;20027;-73
2021/06/08 16:15:54;;;;;;;6.25;2.97;;;;;;;;;;5095135;28;20028;-74
2021/06/08 16:18:20;;;;;;;9.80;4.05;;;;;;;;;;5095122;28;20020;-74
2021/06/08 16:20:47;;;;;;;7.47;4.15;;;;;;;;;;5093553;28;20475;-75
2021/06/08 16:23:13;;;;;;;6.35;3.55;;;;;;;;;;5093444;28;20032;-73
2021/06/08 16:26:58;;;;;;;6.13;3.13;;;;;;;;;;5126240;27;20384;-74
2021/06/08 16:31:27;;;;;;;4.45;2.88;;;;;;;;;;5126032;27;20373;-73
2021/06/08 16:33:53;;;;;;;5.60;2.55;;;;;;;;;;5110947;28;20048;-73
2021/06/08 16:36:19;;;;;;;5.90;2.40;;;;;;;;;;5110753;28;20104;-74
2021/06/08 16:39:24;;;;;;;3.58;2.80;;;;;;;;;;5126429;27;20471;-73
2021/06/08 16:41:50;;;;;;;6.47;2.97;;;;;;;;;;5109368;28;20391;-73
2021/06/08 16:44:16;;;;;;;5.55;2.70;;;;;;;;;;5109983;28;20073;-72
2021/06/08 16:46:42;;;;;;;4.05;2.45;;;;;;;;;;5109069;28;20030;-73
2021/06/08 16:53:30;;;;;;;4.05;2.10;;;;;;;;;;5131354;28;20416;-75